Time;durP1;ratioP1;P1;durP2;ratioP2;P2;SDS_P1;SDS_P2;PMS_P1;PMS_P2;Temp;Humidity;BMP_temperature;BMP_pressure;BME280_temperature;BME280_humidity;BME280_pressure;Samples;Min_cycle;Max_cycle;Signal;HPM_P1;HPM_P2
2022/08/06 00:02:27;;;;;;;0.82;0.30;;;14.80;99.90;;;;;;5054503;28;20485;-69
2022/08/06 00:04:53;;;;;;;1.98;0.73;;;14.70;99.90;;;;;;5052651;28;20036;-68
2022/08/06 00:07:19;;;;;;;1.45;0.65;;;14.80;99.90;;;;;;5055264;28;20081;-69
2022/08/06 00:09:44;;;;;;;2.40;0.57;;;14.80;99.90;;;;;;5055313;28;20040;-69
2022/08/06 00:12:10;;;;;;;0.70;0.40;;;14.80;99.90;;;;;;5054089;28;20035;-69
2022/08/06 00:14:37;;;;;;;1.13;0.40;;;14.80;99.90;;;;;;5059168;28;20080;-69
2022/08/06 00:17:03;;;;;;;1.23;0.60;;;14.80;99.90;;;;;;5050094;28;20389;-69
2022/08/06 00:19:29;;;;;;;0.77;0.47;;;14.80;99.90;;;;;;5057541;28;20460;-69
2022/08/06 00:21:55;;;;;;;2.25;0.90;;;14.80;99.90;;;;;;5046055;28;20115;-69
2022/08/06 00:24:21;;;;;;;0.50;0.40;;;14.80;99.90;;;;;;5052111;28;20045;-69
2022/08/06 00:26:47;;;;;;;1.10;0.43;;;14.70;99.90;;;;;;5036204;28;20109;-69
2022/08/06 00:29:13;;;;;;;2.05;0.25;;;14.80;99.90;;;;;;5052981;28;20041;-69
2022/08/06 00:31:39;;;;;;;1.08;0.60;;;14.70;99.90;;;;;;5055534;28;20037;-69
2022/08/06 00:34:05;;;;;;;0.98;0.50;;;14.70;99.90;;;;;;5052289;28;20449;-69
2022/08/06 00:36:31;;;;;;;;;;;14.70;99.90;;;;;;5040607;28;20122;-69
2022/08/06 00:38:58;;;;;;;2.92;0.40;;;14.70;99.90;;;;;;5053602;28;20293;-69
2022/08/06 00:41:24;;;;;;;1.40;0.60;;;14.70;99.90;;;;;;5060885;28;20074;-69
2022/08/06 00:43:50;;;;;;;0.98;0.55;;;14.60;99.90;;;;;;5059629;28;20397;-70
2022/08/06 00:46:16;;;;;;;2.72;0.55;;;14.60;99.90;;;;;;5059550;28;20024;-70
2022/08/06 00:48:42;;;;;;;1.35;0.57;;;14.60;99.90;;;;;;5061094;28;20393;-69
2022/08/06 00:51:08;;;;;;;3.05;0.55;;;14.60;99.90;;;;;;5053862;28;20036;-69
2022/08/06 00:53:33;;;;;;;0.90;0.43;;;14.40;99.90;;;;;;5055659;28;20041;-69
2022/08/06 00:56:01;;;;;;;2.08;0.30;;;14.50;99.90;;;;;;5046664;28;20040;-69
2022/08/06 00:58:27;;;;;;;0.73;0.38;;;14.50;99.90;;;;;;5058852;28;20113;-70
2022/08/06 01:00:52;;;;;;;4.63;0.73;;;14.50;99.90;;;;;;5056262;28;20378;-69
2022/08/06 01:03:18;;;;;;;1.55;0.57;;;14.50;99.90;;;;;;5049700;28;20509;-69
2022/08/06 01:05:44;;;;;;;0.57;0.40;;;14.50;99.90;;;;;;5048016;28;20037;-70
2022/08/06 01:08:10;;;;;;;3.92;0.65;;;14.50;99.90;;;;;;5047468;28;20296;-69
2022/08/06 01:10:36;;;;;;;0.60;0.50;;;14.50;99.90;;;;;;5050330;28;20458;-70
2022/08/06 01:13:02;;;;;;;1.17;0.50;;;14.50;99.90;;;;;;5052718;28;20051;-69
2022/08/06 01:15:28;;;;;;;1.95;0.60;;;14.40;99.90;;;;;;5055840;28;20044;-69
2022/08/06 01:18:21;;;;;;;0.98;0.50;;;14.40;99.90;;;;;;5050729;28;20059;-69
2022/08/06 01:21:08;;;;;;;2.63;0.30;;;14.40;99.90;;;;;;5055525;28;20067;-70
2022/08/06 01:24:18;;;;;;;1.45;0.50;;;14.40;99.90;;;;;;5053209;28;20045;-69
2022/08/06 01:26:53;;;;;;;0.98;0.40;;;14.30;99.90;;;;;;4994250;28;20061;-70
2022/08/06 01:29:37;;;;;;;0.65;0.25;;;14.30;99.90;;;;;;5058243;28;20028;-69
2022/08/06 01:32:05;;;;;;;0.68;0.30;;;14.30;99.90;;;;;;5057968;28;20029;-69
2022/08/06 01:34:36;;;;;;;2.60;0.43;;;14.20;99.90;;;;;;5058450;28;20445;-69
2022/08/06 01:37:41;;;;;;;2.38;0.28;;;14.20;99.90;;;;;;5050931;28;20513;-70
2022/08/06 01:40:14;;;;;;;0.70;0.40;;;14.10;99.90;;;;;;5052687;28;20221;-70
2022/08/06 01:42:42;;;;;;;0.80;0.40;;;14.10;99.90;;;;;;5062254;28;20441;-70
2022/08/06 01:45:13;;;;;;;0.45;0.28;;;14.10;99.90;;;;;;5054315;28;20163;-69
2022/08/06 01:47:45;;;;;;;1.98;0.35;;;14.00;99.90;;;;;;5053074;28;20548;-70
2022/08/06 01:50:11;;;;;;;1.13;0.40;;;14.10;99.90;;;;;;5056212;28;20040;-69
2022/08/06 01:52:40;;;;;;;1.30;0.47;;;14.10;99.90;;;;;;5054980;28;20256;-69
2022/08/06 01:55:08;;;;;;;1.30;0.47;;;14.10;99.90;;;;;;5072633;28;20052;-69
2022/08/06 01:57:36;;;;;;;2.47;0.35;;;14.10;99.90;;;;;;5051179;28;20403;-70
2022/08/06 02:00:04;;;;;;;0.63;0.40;;;14.10;99.90;;;;;;5056945;28;20049;-69
2022/08/06 02:02:32;;;;;;;1.00;0.50;;;14.10;99.90;;;;;;5054172;28;20101;-69
2022/08/06 02:05:00;;;;;;;1.38;0.82;;;14.10;99.90;;;;;;5061812;28;20074;-70
2022/08/06 02:07:30;;;;;;;1.00;0.50;;;14.10;99.90;;;;;;5054734;28;20040;-69
2022/08/06 02:09:58;;;;;;;1.25;0.50;;;14.10;99.90;;;;;;5058660;28;20098;-70
2022/08/06 02:12:26;;;;;;;0.95;0.60;;;14.00;99.90;;;;;;5056861;28;20119;-70
2022/08/06 02:15:02;;;;;;;0.73;0.40;;;14.00;99.90;;;;;;5042332;28;20039;-70
2022/08/06 02:17:32;;;;;;;2.65;0.60;;;14.00;99.90;;;;;;5055780;28;20048;-69
2022/08/06 02:20:00;;;;;;;0.85;0.50;;;13.90;99.90;;;;;;5059469;28;20052;-70
2022/08/06 02:22:33;;;;;;;1.38;0.52;;;13.90;99.90;;;;;;5056069;28;20462;-69
2022/08/06 02:25:04;;;;;;;1.17;0.60;;;13.80;99.90;;;;;;5052384;28;20068;-69
2022/08/06 02:27:32;;;;;;;1.50;0.77;;;13.80;99.90;;;;;;5055947;28;20029;-70
2022/08/06 02:30:00;;;;;;;1.67;0.70;;;13.80;99.90;;;;;;5060111;28;20049;-69
2022/08/06 02:32:26;;;;;;;0.90;0.50;;;13.80;99.90;;;;;;5060347;28;20051;-69
2022/08/06 02:34:52;;;;;;;1.45;0.80;;;13.70;99.90;;;;;;5085252;22;20040;-85
2022/08/06 02:37:28;;;;;;;3.33;0.57;;;13.70;99.90;;;;;;5040647;28;20044;-89
2022/08/06 02:40:05;;;;;;;1.30;0.80;;;13.70;99.90;;;;;;5065965;28;20544;-86
2022/08/06 02:42:33;;;;;;;;;;;13.60;99.90;;;;;;5047872;28;20083;-85
2022/08/06 02:45:07;;;;;;;2.70;0.70;;;13.60;99.90;;;;;;5079660;28;19917;-86
2022/08/06 02:48:13;;;;;;;3.83;0.98;;;13.60;99.90;;;;;;5059242;28;20056;-86
2022/08/06 02:50:41;;;;;;;1.20;0.57;;;13.50;99.90;;;;;;5060143;28;20048;-86
2022/08/06 02:53:10;;;;;;;1.00;0.55;;;13.50;99.90;;;;;;5038916;28;20127;-85
2022/08/06 02:55:42;;;;;;;2.10;0.75;;;13.50;99.90;;;;;;5042897;28;20521;-86
2022/08/06 02:58:16;;;;;;;1.95;0.70;;;13.50;99.90;;;;;;5042199;28;20039;-90
2022/08/06 03:00:45;;;;;;;1.20;0.80;;;13.50;99.90;;;;;;5042704;28;20136;-86
2022/08/06 03:03:13;;;;;;;0.85;0.68;;;13.50;99.90;;;;;;5063196;28;20128;-86
2022/08/06 03:05:43;;;;;;;2.38;0.73;;;13.50;99.90;;;;;;5063305;28;20040;-86
2022/08/06 03:08:13;;;;;;;1.67;0.60;;;13.40;99.90;;;;;;5061799;28;20066;-87
2022/08/06 03:10:40;;;;;;;0.68;0.50;;;13.40;99.90;;;;;;5063692;28;20090;-86
2022/08/06 03:13:07;;;;;;;2.45;0.90;;;13.50;99.90;;;;;;5044917;28;20040;-87
2022/08/06 03:15:35;;;;;;;2.30;1.13;;;13.40;99.90;;;;;;5080082;28;20032;-87
2022/08/06 03:18:03;;;;;;;1.73;0.65;;;13.40;99.90;;;;;;5048836;28;20151;-88
2022/08/06 03:20:31;;;;;;;1.75;0.60;;;13.30;99.90;;;;;;5032429;28;20052;-86
2022/08/06 03:22:59;;;;;;;1.65;0.70;;;13.30;99.90;;;;;;5060710;28;20127;-86
2022/08/06 03:25:27;;;;;;;1.60;0.80;;;13.30;99.90;;;;;;5058690;28;20380;-88
2022/08/06 03:27:54;;;;;;;1.38;0.70;;;13.30;99.90;;;;;;5049692;28;20223;-85
2022/08/06 03:30:20;;;;;;;1.77;0.80;;;13.20;99.90;;;;;;5046328;28;20049;-87
2022/08/06 03:32:47;;;;;;;3.45;1.10;;;13.10;99.90;;;;;;5037972;28;20557;-85
2022/08/06 03:35:15;;;;;;;1.77;0.80;;;13.10;99.90;;;;;;5056831;28;20253;-88
2022/08/06 03:37:42;;;;;;;1.95;0.80;;;13.10;99.90;;;;;;5052003;28;20049;-86
2022/08/06 03:40:10;;;;;;;2.42;0.68;;;13.00;99.90;;;;;;5052673;28;20051;-87
2022/08/06 03:42:36;;;;;;;2.60;0.60;;;13.10;99.90;;;;;;5053143;28;20059;-86
2022/08/06 03:45:02;;;;;;;2.55;0.70;;;13.10;99.90;;;;;;5056701;28;20352;-88
2022/08/06 03:47:32;;;;;;;1.60;0.80;;;13.10;99.90;;;;;;5067800;28;20033;-88
2022/08/06 03:50:04;;;;;;;0.77;0.63;;;13.10;99.90;;;;;;5082787;28;20521;-87
2022/08/06 03:52:32;;;;;;;1.08;0.52;;;13.10;99.90;;;;;;5065768;28;20570;-86
2022/08/06 03:55:07;;;;;;;1.23;0.73;;;13.00;99.90;;;;;;5060747;28;20046;-86
2022/08/06 03:57:37;;;;;;;2.45;0.60;;;13.20;99.90;;;;;;5037026;28;20560;-87
2022/08/06 04:00:04;;;;;;;1.17;0.60;;;13.20;99.90;;;;;;5048343;28;20037;-87
2022/08/06 04:02:43;;;;;;;1.45;0.73;;;13.20;99.90;;;;;;5052033;28;20116;-85
2022/08/06 04:05:11;;;;;;;1.15;0.70;;;13.20;99.90;;;;;;5083301;28;20029;-86
2022/08/06 04:07:38;;;;;;;1.27;0.90;;;13.20;99.90;;;;;;5058697;28;20147;-87
2022/08/06 04:10:04;;;;;;;1.88;0.80;;;13.20;99.90;;;;;;5052185;28;20044;-86
2022/08/06 04:12:31;;;;;;;1.42;0.90;;;13.20;99.90;;;;;;5073516;28;20036;-87
2022/08/06 04:14:57;;;;;;;1.73;0.80;;;13.20;99.90;;;;;;5053086;28;20041;-86
2022/08/06 04:17:24;;;;;;;;;;;13.30;99.90;;;;;;5064901;28;20045;-86
2022/08/06 04:19:52;;;;;;;0.98;0.70;;;13.20;99.90;;;;;;5052931;28;19916;-86
2022/08/06 04:22:18;;;;;;;2.17;0.80;;;13.10;99.90;;;;;;5049552;28;20056;-86
2022/08/06 04:24:44;;;;;;;2.80;0.82;;;13.20;99.90;;;;;;5067510;28;20051;-87
2022/08/06 04:27:10;;;;;;;1.38;0.90;;;13.20;99.90;;;;;;5069265;28;20439;-86
2022/08/06 04:29:38;;;;;;;1.67;1.00;;;13.10;99.90;;;;;;5066806;28;20037;-85
2022/08/06 04:32:06;;;;;;;1.65;0.90;;;13.10;99.90;;;;;;5058647;28;20048;-85
2022/08/06 04:34:33;;;;;;;1.35;0.90;;;13.10;99.90;;;;;;5043355;28;20060;-87
2022/08/06 04:37:00;;;;;;;1.20;0.80;;;13.10;99.90;;;;;;5056274;28;20037;-88
2022/08/06 04:39:27;;;;;;;1.55;1.00;;;13.20;99.90;;;;;;5067705;28;20064;-87
2022/08/06 04:41:54;;;;;;;3.20;1.23;;;13.10;99.90;;;;;;5072621;28;20048;-86
2022/08/06 04:44:20;;;;;;;1.45;0.70;;;13.20;99.90;;;;;;5042706;28;20499;-86
2022/08/06 04:46:48;;;;;;;;;;;13.20;99.90;;;;;;5069224;28;20044;-86
2022/08/06 04:49:16;;;;;;;2.17;0.80;;;13.30;99.90;;;;;;5071802;28;19916;-86
2022/08/06 04:51:46;;;;;;;1.25;0.88;;;13.30;99.90;;;;;;5073574;28;20600;-84
2022/08/06 04:54:13;;;;;;;2.10;0.80;;;13.40;99.90;;;;;;5050003;28;20128;-87
2022/08/06 04:56:40;;;;;;;2.30;1.17;;;13.40;99.90;;;;;;5053097;28;20045;-87
2022/08/06 04:59:06;;;;;;;1.77;1.00;;;13.40;99.90;;;;;;5046356;28;20056;-88
2022/08/06 05:01:31;;;;;;;1.95;1.00;;;13.50;99.90;;;;;;5063494;28;20041;-86
2022/08/06 05:03:57;;;;;;;2.57;1.00;;;13.60;99.90;;;;;;5048366;28;20075;-86
2022/08/06 05:06:57;;;;;;;2.95;1.00;;;13.50;99.90;;;;;;5059552;28;20295;-86
2022/08/06 05:09:25;;;;;;;1.33;1.00;;;13.60;99.90;;;;;;5064183;28;20082;-86
2022/08/06 05:11:59;;;;;;;1.48;0.80;;;13.60;99.90;;;;;;5051246;28;20123;-86
2022/08/06 05:14:45;;;;;;;1.58;0.90;;;13.60;99.90;;;;;;5045356;28;20094;-85
2022/08/06 05:17:15;;;;;;;1.17;0.77;;;13.60;99.90;;;;;;5051953;28;20076;-86
2022/08/06 05:19:46;;;;;;;1.35;0.77;;;13.60;99.90;;;;;;5043900;28;20041;-86
2022/08/06 05:22:15;;;;;;;2.42;1.08;;;13.60;99.90;;;;;;5060910;28;20458;-86
2022/08/06 05:24:41;;;;;;;1.40;0.88;;;13.60;99.90;;;;;;5060212;28;20484;-86
2022/08/06 05:27:09;;;;;;;;;;;13.60;99.90;;;;;;5056018;28;20232;-86
2022/08/06 05:29:34;;;;;;;;;;;13.60;99.90;;;;;;5050018;28;19920;-84
2022/08/06 05:32:01;;;;;;;1.13;0.68;;;13.60;99.90;;;;;;5041873;28;19990;-86
2022/08/06 05:34:27;;;;;;;1.42;0.70;;;13.60;99.90;;;;;;5037992;28;20055;-86
2022/08/06 05:36:53;;;;;;;2.47;0.80;;;13.70;99.90;;;;;;5056907;28;20397;-86
2022/08/06 05:39:19;;;;;;;1.02;0.57;;;13.70;99.90;;;;;;5068012;28;20039;-87
2022/08/06 05:41:46;;;;;;;2.92;0.65;;;13.80;99.90;;;;;;5075010;28;20037;-86
2022/08/06 05:44:12;;;;;;;1.13;0.68;;;13.80;99.90;;;;;;5053631;28;20032;-86
2022/08/06 05:46:51;;;;;;;1.52;0.50;;;13.90;99.90;;;;;;5071414;28;20043;-86
2022/08/06 05:49:25;;;;;;;1.00;0.60;;;14.00;99.90;;;;;;5067732;28;20111;-87
2022/08/06 05:52:31;;;;;;;0.90;0.40;;;14.00;99.90;;;;;;5066849;28;20080;-86
2022/08/06 05:55:08;;;;;;;0.90;0.50;;;14.10;99.90;;;;;;5056318;28;20395;-87
2022/08/06 05:57:38;;;;;;;;;;;14.10;99.90;;;;;;5044693;28;20040;-88
2022/08/06 06:00:11;;;;;;;1.50;0.50;;;14.20;99.90;;;;;;5078966;28;20305;-86
2022/08/06 06:02:41;;;;;;;2.20;0.80;;;14.20;99.90;;;;;;5043285;28;20128;-86
2022/08/06 06:05:08;;;;;;;0.85;0.40;;;14.30;99.90;;;;;;5062711;28;20071;-88
2022/08/06 06:07:35;;;;;;;1.48;1.00;;;14.40;99.90;;;;;;5059955;28;20044;-87
2022/08/06 06:10:06;;;;;;;3.55;0.50;;;14.40;99.90;;;;;;5067127;28;20079;-88
2022/08/06 06:12:33;;;;;;;2.13;0.55;;;14.50;99.90;;;;;;5068104;28;20059;-88
2022/08/06 06:15:00;;;;;;;1.25;0.43;;;14.60;99.90;;;;;;5048161;28;20051;-85
2022/08/06 06:18:00;;;;;;;2.15;0.63;;;14.50;99.90;;;;;;5051218;28;20068;-88
2022/08/06 06:20:47;;;;;;;1.10;0.40;;;14.70;99.90;;;;;;5084795;28;20206;-86
2022/08/06 06:23:27;;;;;;;0.60;0.43;;;14.80;99.90;;;;;;5077467;28;20055;-87
2022/08/06 06:26:16;;;;;;;0.68;0.32;;;14.90;99.90;;;;;;5052276;28;20080;-87
2022/08/06 06:28:55;;;;;;;1.80;0.25;;;15.00;99.90;;;;;;5006145;28;20045;-86
2022/08/06 06:31:33;;;;;;;0.70;0.40;;;15.00;99.90;;;;;;5060988;28;20039;-87
2022/08/06 06:34:11;;;;;;;1.60;0.40;;;15.10;99.90;;;;;;5067340;28;20394;-85
2022/08/06 06:36:57;;;;;;;1.13;0.47;;;15.10;99.90;;;;;;5051320;28;20048;-88
2022/08/06 06:39:36;;;;;;;2.45;0.45;;;15.30;99.90;;;;;;5046683;28;20418;-86
2022/08/06 06:42:12;;;;;;;1.65;0.40;;;15.30;99.90;;;;;;5054632;28;20116;-87
2022/08/06 06:45:02;;;;;;;3.83;0.40;;;15.40;99.90;;;;;;5071329;28;20048;-85
2022/08/06 06:47:52;;;;;;;1.55;0.40;;;15.50;99.90;;;;;;5062070;28;20490;-87
2022/08/06 06:50:28;;;;;;;1.23;0.30;;;15.60;99.90;;;;;;5039152;28;20461;-88
2022/08/06 06:52:55;;;;;;;1.02;0.60;;;15.60;99.90;;;;;;5043853;28;20037;-87
2022/08/06 06:55:28;;;;;;;;;;;15.70;99.90;;;;;;5041109;28;20040;-87
2022/08/06 06:58:01;;;;;;;0.95;0.50;;;15.80;99.90;;;;;;5056444;28;20039;-87
2022/08/06 07:00:27;;;;;;;1.55;0.68;;;15.80;99.90;;;;;;5058856;28;20103;-87
2022/08/06 07:02:55;;;;;;;1.10;0.40;;;15.80;99.90;;;;;;5050734;28;20043;-88
2022/08/06 07:05:25;;;;;;;2.75;0.80;;;16.00;99.90;;;;;;5042595;28;20067;-88
2022/08/06 07:07:56;;;;;;;2.15;0.80;;;16.10;99.90;;;;;;5061459;28;20072;-87
2022/08/06 07:10:23;;;;;;;1.95;0.70;;;16.10;99.90;;;;;;5056188;28;20143;-86
2022/08/06 07:12:50;;;;;;;4.90;0.95;;;16.20;99.90;;;;;;5045140;28;20785;-86
2022/08/06 07:15:19;;;;;;;4.68;0.77;;;16.30;99.90;;;;;;5049578;28;20422;-86
2022/08/06 07:17:47;;;;;;;3.03;0.75;;;16.30;99.90;;;;;;5048100;28;20464;-86
2022/08/06 07:20:21;;;;;;;1.98;0.73;;;16.50;99.90;;;;;;5065916;28;20044;-87
2022/08/06 07:22:57;;;;;;;3.45;0.90;;;16.50;99.90;;;;;;5037534;28;20055;-88
2022/08/06 07:25:24;;;;;;;3.33;0.82;;;16.70;99.90;;;;;;5069782;28;20094;-85
2022/08/06 07:27:51;;;;;;;3.38;0.90;;;16.70;99.90;;;;;;5046929;28;20052;-84
2022/08/06 07:30:23;;;;;;;1.75;0.63;;;16.80;99.90;;;;;;5048128;28;20036;-90
2022/08/06 07:32:56;;;;;;;1.55;0.60;;;16.80;99.90;;;;;;5072346;28;20051;-84
2022/08/06 07:35:24;;;;;;;2.15;0.70;;;16.80;99.90;;;;;;5061735;28;20139;-85
2022/08/06 07:37:57;;;;;;;2.60;0.80;;;16.90;99.90;;;;;;5070353;28;20037;-82
2022/08/06 07:40:53;;;;;;;1.75;0.77;;;17.00;99.90;;;;;;5049626;28;20115;-85
2022/08/06 07:43:26;;;;;;;1.92;0.60;;;17.00;99.90;;;;;;5055657;28;20052;-85
2022/08/06 07:45:55;;;;;;;1.40;0.68;;;17.10;99.90;;;;;;5056971;28;20406;-85
2022/08/06 07:48:46;;;;;;;3.30;1.20;;;17.10;99.90;;;;;;5043105;28;20051;-85
2022/08/06 07:51:13;;;;;;;2.72;0.70;;;17.10;99.90;;;;;;5067877;28;20113;-85
2022/08/06 07:53:40;;;;;;;2.03;0.68;;;17.20;99.90;;;;;;5048616;28;20070;-84
2022/08/06 07:56:08;;;;;;;2.30;0.73;;;17.20;99.90;;;;;;5036947;28;20637;-84
2022/08/06 07:58:36;;;;;;;3.00;0.80;;;17.30;99.90;;;;;;5058990;28;20036;-85
2022/08/06 08:01:02;;;;;;;2.30;0.80;;;17.30;99.90;;;;;;5044984;28;20116;-83
2022/08/06 08:06:22;;;;;;;1.75;0.80;;;17.50;99.90;;;;;;5067808;28;20036;-86
2022/08/06 08:09:09;;;;;;;2.05;0.80;;;17.60;99.90;;;;;;5060882;28;20655;-84
2022/08/06 08:11:40;;;;;;;1.98;0.77;;;17.60;99.90;;;;;;5063424;28;20044;-84
2022/08/06 08:14:09;;;;;;;2.25;0.80;;;17.50;99.90;;;;;;5053281;28;20455;-86
2022/08/06 08:16:35;;;;;;;1.65;0.70;;;17.50;99.90;;;;;;5063137;28;20257;-85
2022/08/06 08:19:01;;;;;;;3.72;1.08;;;17.60;99.90;;;;;;5064590;28;20040;-86
2022/08/06 08:21:28;;;;;;;3.08;0.70;;;17.60;99.90;;;;;;5062559;28;20043;-85
2022/08/06 08:23:56;;;;;;;2.83;0.65;;;17.70;99.90;;;;;;5072534;28;20133;-85
2022/08/06 08:26:22;;;;;;;0.93;0.60;;;17.80;99.90;;;;;;5031455;28;20113;-84
2022/08/06 08:28:47;;;;;;;2.58;0.75;;;17.80;99.90;;;;;;5057123;28;20032;-84
2022/08/06 08:31:13;;;;;;;2.00;0.43;;;17.80;99.90;;;;;;5059227;28;20040;-85
2022/08/06 08:33:42;;;;;;;3.05;0.70;;;17.90;99.90;;;;;;5056081;28;20353;-85
2022/08/06 08:36:09;;;;;;;3.00;0.70;;;18.00;99.90;;;;;;5064022;28;20036;-83
2022/08/06 08:38:35;;;;;;;1.52;0.60;;;18.00;99.90;;;;;;5047320;28;20037;-84
2022/08/06 08:41:13;;;;;;;1.85;0.65;;;18.10;99.90;;;;;;5056945;28;20036;-85
2022/08/06 08:43:44;;;;;;;2.13;0.68;;;18.00;99.90;;;;;;5063745;28;20043;-84
2022/08/06 08:46:11;;;;;;;4.05;1.13;;;18.20;99.90;;;;;;5068783;28;20052;-83
2022/08/06 08:48:37;;;;;;;1.25;0.60;;;18.20;99.90;;;;;;5066470;28;20036;-83
2022/08/06 08:51:04;;;;;;;1.65;0.88;;;18.30;99.90;;;;;;5070521;28;20043;-83
2022/08/06 08:53:52;;;;;;;3.13;0.60;;;18.40;99.90;;;;;;5045456;28;20567;-83
2022/08/06 08:56:18;;;;;;;1.27;0.68;;;18.40;99.90;;;;;;5059062;28;20035;-83
2022/08/06 08:58:45;;;;;;;3.70;0.90;;;18.60;99.90;;;;;;5067917;28;20123;-83
2022/08/06 09:01:11;;;;;;;2.90;1.00;;;18.70;99.90;;;;;;5061285;28;20079;-85
2022/08/06 09:03:43;;;;;;;2.38;0.50;;;18.90;99.90;;;;;;5042926;28;20442;-86
2022/08/06 09:06:13;;;;;;;2.97;0.68;;;19.00;99.90;;;;;;5045457;28;20028;-84
2022/08/06 09:08:46;;;;;;;1.88;0.77;;;19.00;99.90;;;;;;5063641;28;20124;-85
2022/08/06 09:11:12;;;;;;;1.77;0.70;;;18.90;99.90;;;;;;5069630;28;20071;-84
2022/08/06 09:13:38;;;;;;;3.58;0.70;;;18.90;99.90;;;;;;5063907;28;20063;-85
2022/08/06 09:16:04;;;;;;;1.13;0.55;;;18.80;99.90;;;;;;5068631;28;20036;-82
2022/08/06 09:18:30;;;;;;;1.27;0.57;;;18.80;99.90;;;;;;5068618;28;20413;-85
2022/08/06 09:21:01;;;;;;;2.55;1.00;;;18.70;99.90;;;;;;5068577;28;20127;-82
2022/08/06 09:23:27;;;;;;;1.35;0.50;;;18.60;99.90;;;;;;5063881;28;20097;-84
2022/08/06 09:25:53;;;;;;;2.63;0.90;;;18.50;99.90;;;;;;5059196;28;20033;-84
2022/08/06 09:28:25;;;;;;;1.42;0.80;;;18.40;99.90;;;;;;5061679;28;20036;-82
2022/08/06 09:31:09;;;;;;;2.90;0.60;;;18.40;99.90;;;;;;5062217;28;20101;-85
2022/08/06 09:33:37;;;;;;;2.00;0.95;;;18.40;99.90;;;;;;5059314;28;20040;-84
2022/08/06 09:36:09;;;;;;;2.10;0.57;;;18.50;99.90;;;;;;5064453;28;20386;-84
2022/08/06 09:38:48;;;;;;;1.65;0.60;;;18.60;99.90;;;;;;5068708;28;20048;-84
2022/08/06 09:41:15;;;;;;;1.63;0.70;;;18.80;99.90;;;;;;5077539;28;20041;-85
2022/08/06 09:43:52;;;;;;;1.58;0.70;;;18.90;99.90;;;;;;5067494;28;20078;-85
2022/08/06 09:46:35;;;;;;;1.90;0.80;;;19.00;99.90;;;;;;5073087;28;20400;-84
2022/08/06 09:49:02;;;;;;;1.52;0.70;;;19.20;99.90;;;;;;5039612;28;20100;-85
2022/08/06 09:51:29;;;;;;;1.45;0.60;;;19.30;99.90;;;;;;5066971;28;20462;-83
2022/08/06 09:53:57;;;;;;;1.08;0.57;;;19.40;99.90;;;;;;5052492;28;20032;-81
2022/08/06 09:56:24;;;;;;;1.52;0.80;;;19.50;99.90;;;;;;5057705;28;20039;-86
2022/08/06 09:58:49;;;;;;;1.88;0.70;;;19.70;99.90;;;;;;5060034;28;20028;-84
2022/08/06 10:01:20;;;;;;;3.58;0.85;;;19.90;99.90;;;;;;5066081;28;20514;-85
2022/08/06 10:03:46;;;;;;;1.58;0.60;;;19.90;99.90;;;;;;5043080;28;20390;-84
2022/08/06 10:06:14;;;;;;;2.65;0.90;;;19.90;99.90;;;;;;5046174;28;20410;-84
2022/08/06 10:08:43;;;;;;;2.20;1.02;;;19.90;99.90;;;;;;5065775;28;20029;-84
2022/08/06 10:11:09;;;;;;;1.90;0.98;;;19.80;99.90;;;;;;5049635;28;20457;-82
2022/08/06 10:13:35;;;;;;;;;;;19.80;99.90;;;;;;5048265;28;20486;-84
2022/08/06 10:16:16;;;;;;;3.40;0.90;;;19.80;99.90;;;;;;5068012;28;19912;-85
2022/08/06 10:18:49;;;;;;;3.08;1.10;;;19.90;99.90;;;;;;5053399;28;20032;-84
2022/08/06 10:21:18;;;;;;;2.25;1.05;;;20.10;99.90;;;;;;5084436;28;20375;-84
2022/08/06 10:23:49;;;;;;;2.17;0.98;;;20.20;99.90;;;;;;5059763;28;20052;-85
2022/08/06 10:26:24;;;;;;;1.88;0.90;;;20.30;99.90;;;;;;5055592;28;20374;-84
2022/08/06 10:28:54;;;;;;;3.30;0.85;;;20.50;99.90;;;;;;5060761;28;20033;-85
2022/08/06 10:31:21;;;;;;;1.77;1.10;;;20.50;99.90;;;;;;5064408;28;20047;-85
2022/08/06 10:34:06;;;;;;;3.10;1.20;;;20.50;99.00;;;;;;5042708;28;20037;-85
2022/08/06 10:36:39;;;;;;;2.08;1.00;;;20.60;97.90;;;;;;5060063;28;20486;-83
2022/08/06 10:39:06;;;;;;;3.05;1.23;;;20.70;98.00;;;;;;5066188;28;20044;-85
2022/08/06 10:41:35;;;;;;;1.75;0.98;;;20.80;96.90;;;;;;5066237;28;20029;-84
2022/08/06 10:44:02;;;;;;;2.10;1.30;;;20.90;97.80;;;;;;5064113;28;20498;-84
2022/08/06 10:46:28;;;;;;;2.45;1.33;;;20.90;98.40;;;;;;5067184;28;20498;-85
2022/08/06 10:49:00;;;;;;;2.28;1.10;;;20.90;98.40;;;;;;5041588;28;20070;-83
2022/08/06 10:51:29;;;;;;;3.13;0.88;;;20.90;98.00;;;;;;5032647;28;20073;-84
2022/08/06 10:53:55;;;;;;;3.25;0.93;;;20.70;98.10;;;;;;5066649;28;20063;-84
2022/08/06 10:56:26;;;;;;;;;;;20.70;98.10;;;;;;5048947;28;20044;-85
2022/08/06 10:58:53;;;;;;;2.25;1.08;;;20.50;97.80;;;;;;5064201;28;19966;-85
2022/08/06 11:01:24;;;;;;;1.60;0.88;;;20.40;98.90;;;;;;5062849;28;20068;-84
2022/08/06 11:03:55;;;;;;;1.98;1.00;;;20.30;99.10;;;;;;5055109;28;20020;-84
2022/08/06 11:06:35;;;;;;;1.73;0.90;;;20.20;99.40;;;;;;5048356;28;20071;-84
2022/08/06 11:09:47;;;;;;;2.45;1.30;;;20.20;99.40;;;;;;5058900;28;20041;-84
2022/08/06 11:12:52;;;;;;;1.77;0.88;;;20.00;99.50;;;;;;5066577;28;20055;-82
2022/08/06 11:15:20;;;;;;;3.03;1.27;;;20.10;99.90;;;;;;5065061;28;20047;-85
2022/08/06 11:18:02;;;;;;;2.38;1.08;;;20.20;99.90;;;;;;5068076;28;20111;-86
2022/08/06 11:20:33;;;;;;;1.98;1.00;;;20.30;99.90;;;;;;5045556;28;20048;-86
2022/08/06 11:23:00;;;;;;;2.60;1.15;;;20.40;99.90;;;;;;5062773;28;20032;-85
2022/08/06 11:25:45;;;;;;;2.28;1.20;;;20.50;99.30;;;;;;5061940;28;20419;-86
2022/08/06 11:28:13;;;;;;;1.50;0.90;;;20.50;98.50;;;;;;5061409;28;20040;-83
2022/08/06 11:30:57;;;;;;;2.20;0.80;;;20.60;98.50;;;;;;5066254;28;20044;-85
2022/08/06 11:33:32;;;;;;;1.23;0.63;;;20.70;99.40;;;;;;5046151;28;20048;-85
2022/08/06 11:36:00;;;;;;;2.15;0.80;;;20.80;98.80;;;;;;5057873;28;20775;-86
2022/08/06 11:38:47;;;;;;;2.65;0.70;;;20.90;99.10;;;;;;5062214;28;20111;-85
2022/08/06 11:41:30;;;;;;;2.92;0.90;;;20.90;99.10;;;;;;5053841;28;20124;-86
2022/08/06 11:44:18;;;;;;;1.87;0.73;;;21.00;98.90;;;;;;5062648;28;20044;-87
2022/08/06 11:46:51;;;;;;;2.47;0.82;;;21.00;99.20;;;;;;5058741;28;20424;-86
2022/08/06 11:49:22;;;;;;;1.83;0.80;;;21.10;98.80;;;;;;5042846;28;20410;-87
2022/08/06 11:51:50;;;;;;;2.25;0.80;;;21.20;98.20;;;;;;5066359;28;20149;-86
2022/08/06 11:54:26;;;;;;;2.92;1.00;;;21.20;98.00;;;;;;5053866;28;20040;-87
2022/08/06 11:57:01;;;;;;;1.88;0.80;;;21.20;98.10;;;;;;5054957;28;20040;-86
2022/08/06 11:59:47;;;;;;;1.80;0.80;;;21.10;98.00;;;;;;5058588;28;20052;-86
2022/08/06 12:02:27;;;;;;;2.17;1.00;;;21.10;96.50;;;;;;5057895;28;20082;-85
2022/08/06 12:04:56;;;;;;;2.15;0.82;;;21.20;96.90;;;;;;5060524;28;20028;-86
2022/08/06 12:07:30;;;;;;;1.98;1.00;;;21.30;96.60;;;;;;5043898;28;20107;-87
2022/08/06 12:10:04;;;;;;;1.40;0.70;;;21.40;96.40;;;;;;5063809;28;20040;-86
2022/08/06 12:12:30;;;;;;;2.50;0.70;;;21.50;95.90;;;;;;5054089;28;20065;-85
2022/08/06 12:15:03;;;;;;;1.35;0.80;;;21.60;95.90;;;;;;5066596;28;20032;-85
2022/08/06 12:17:32;;;;;;;1.73;0.90;;;21.40;94.00;;;;;;5052433;28;20106;-86
2022/08/06 12:20:02;;;;;;;0.98;0.57;;;21.50;93.60;;;;;;5043736;28;20406;-87
2022/08/06 12:22:30;;;;;;;1.83;0.88;;;21.60;94.10;;;;;;5048802;28;20044;-86
2022/08/06 12:24:58;;;;;;;1.50;0.80;;;21.70;94.10;;;;;;5050457;28;20021;-86
2022/08/06 12:27:34;;;;;;;2.28;1.00;;;21.90;94.50;;;;;;5053275;28;20036;-86
2022/08/06 12:30:09;;;;;;;1.73;0.90;;;22.10;94.50;;;;;;5078683;28;20089;-86
2022/08/06 12:32:36;;;;;;;2.75;1.00;;;22.10;93.70;;;;;;5078379;28;20481;-86
2022/08/06 12:35:15;;;;;;;2.00;1.05;;;22.30;94.00;;;;;;5065002;28;20028;-87
2022/08/06 12:38:11;;;;;;;1.48;0.70;;;22.40;94.20;;;;;;5064707;28;20067;-82
2022/08/06 12:41:14;;;;;;;1.73;1.00;;;22.50;93.90;;;;;;5079141;28;20049;-85
2022/08/06 12:43:44;;;;;;;2.20;0.88;;;22.60;93.70;;;;;;5067836;28;20037;-85
2022/08/06 12:46:15;;;;;;;2.30;0.98;;;22.60;92.20;;;;;;5048341;28;20051;-85
2022/08/06 12:48:49;;;;;;;1.60;0.98;;;22.60;91.40;;;;;;5046643;28;20040;-85
2022/08/06 12:51:16;;;;;;;1.98;0.85;;;22.60;89.50;;;;;;5068979;28;20057;-85
2022/08/06 12:53:58;;;;;;;1.52;0.90;;;22.60;91.10;;;;;;5065255;28;20475;-84
2022/08/06 12:56:26;;;;;;;1.98;0.85;;;22.70;89.80;;;;;;5068757;28;20448;-86
2022/08/06 12:59:04;;;;;;;1.05;0.70;;;22.60;88.40;;;;;;5065677;28;20049;-85
2022/08/06 13:01:33;;;;;;;1.73;0.90;;;22.50;89.50;;;;;;5064380;28;20037;-85
2022/08/06 13:04:00;;;;;;;2.30;1.15;;;22.60;89.30;;;;;;5050161;28;20384;-86
2022/08/06 13:06:30;;;;;;;1.73;1.00;;;22.70;88.40;;;;;;5078899;28;20064;-85
2022/08/06 13:08:59;;;;;;;2.55;1.15;;;22.70;86.80;;;;;;5065998;28;20032;-85
2022/08/06 13:11:32;;;;;;;1.42;0.80;;;22.80;87.10;;;;;;5063874;28;20044;-87
2022/08/06 13:14:13;;;;;;;2.90;1.50;;;22.90;85.80;;;;;;5047866;28;20074;-85
2022/08/06 13:16:50;;;;;;;2.42;1.00;;;22.90;83.20;;;;;;5060693;28;20025;-85